Flight Track Log - Related Links

Times and Time Zones

All times are in EDT time to prevent confusion due to time zone crossing. See the FDX1365 flight status page for this flight to view local times or setup timezone preferences in your user account.

Time Position Orientation Groundspeed Altitude Reporting Facility
EDT Latitude Longitude Course Direction KTS MPH feet Rate Location/Type
Thu 12:09:48 AM 32.8709 -97.0309 179° South 208 239 2,800  Level FlightAware ADS-B
Thu 12:10:09 AM 32.8419 -97.0306 179° South 220 253 4,100 -353 Climbing FlightAware ADS-B
Thu 12:10:22 AM 32.8601 -97.0309 360° North 201 231 2,600 -2,400 Descending FlightAware ADS-B
Thu 12:10:34 AM 32.8489 -97.0308 179° South 221 254 3,100 4,688 Climbing FlightAware ADS-B
Thu 12:10:54 AM 32.8170 -97.0277 163° South 237 273 5,100 5,357 Climbing FlightAware ADS-B
Thu 12:11:02 AM 32.8053 -97.0209 145° Southeast 263 303 5,600 3,429 Climbing FlightAware ADS-B
Thu 12:11:15 AM 32.7918 -97.0035 121° Southeast 283 326 6,300 3,091 Climbing FlightAware ADS-B
Thu 12:11:35 AM 32.7849 -96.9781 97° East 291 335 7,300 2,786 Climbing FlightAware ADS-B
Thu 12:11:43 AM 32.7846 -96.9635 88° East 293 337 7,600 1,875 Climbing FlightAware ADS-B
Thu 12:11:51 AM 32.7862 -96.9493 78° East 293 337 7,800 1,610 Climbing FlightAware ADS-B
Thu 12:12:24 AM 32.7956 -96.9105 73° East 292 336 8,700 1,756 Climbing FlightAware ADS-B
Thu 12:12:32 AM 32.7987 -96.8981 72° East 292 336 9,000 2,850 Climbing FlightAware ADS-B
Thu 12:13:04 AM 32.8130 -96.8249 80° East 354 407 10,600 3,306 Climbing FlightAware ADS-B
Thu 12:14:10 AM 32.8125 -96.8267 83° East 421 484 14,400 2,980 Climbing FlightAware ADS-B
Thu 12:15:35 AM 32.8497 -96.4783 82° East 442 509 18,100 2,619 Climbing FlightAware ADS-B
Thu 12:16:16 AM 32.8609 -96.3729 82° East 455 524 19,900 2,649 Climbing FlightAware ADS-B
Thu 12:16:52 AM 32.8625 -96.3581 89° East 468 539 21,500 3,237 Climbing FlightAware ADS-B
Thu 12:17:32 AM 32.8687 -96.1413 89° East 479 551 24,000 3,545 Climbing FlightAware ADS-B (EGLF / FAB)
Thu 12:17:36 AM 32.8689 -96.1308 89° East 482 555 24,100 1,964 Climbing FlightAware ADS-B (EGLF / FAB)
Thu 12:18:27 AM 32.8713 -95.9937 88° East 498 573 25,800 2,000 Climbing FlightAware ADS-B
Thu 12:18:57 AM 32.8725 -95.9136 89° East 507 583 26,800 1,900 Climbing FlightAware ADS-B
Thu 12:19:27 AM 32.8738 -95.8239 88° East 515 593 27,700 1,833 Climbing FlightAware ADS-B
Thu 12:19:33 AM 32.8740 -95.8095 89° East 516 594 27,900 1,929 Climbing FlightAware ADS-B (EGLF / FAB)
Thu 12:19:55 AM 32.8751 -95.7469 88° East 520 598 28,600 2,400 Climbing FlightAware ADS-B
Thu 12:20:13 AM 32.8759 -95.6957 89° East 517 595 29,500 2,595 Climbing FlightAware ADS-B (EGLF / FAB)
Thu 12:20:32 AM 32.8766 -95.6505 88° East 512 589 30,200 2,684 Climbing FlightAware ADS-B
Thu 12:20:51 AM 32.8775 -95.5886 89° East 512 589 31,200 3,000 Climbing FlightAware ADS-B (EGLF / FAB)
Thu 12:21:02 AM 32.8778 -95.5580 89° East 509 586 31,700 2,000 Climbing FlightAware ADS-B
Thu 12:21:30 AM 32.8787 -95.4794 89° East 509 586 32,500 1,600 Climbing FlightAware ADS-B
Thu 12:22:02 AM 32.8799 -95.3887 88° East 518 596 33,300 1,726 Climbing FlightAware ADS-B
Thu 12:22:43 AM 32.8948 -95.2736 79° East 515 593 34,600 1,437 Climbing FlightAware ADS-B
Thu 12:23:13 AM 32.9077 -95.1899 80° East 516 594 35,000 490 Climbing FlightAware ADS-B (EGLF / FAB)
Thu 12:23:32 AM 32.9154 -95.1372 79° East 512 589 35,000  Level FlightAware ADS-B
Thu 12:23:53 AM 32.9243 -95.0816 80° East 511 588 35,000  Level FlightAware ADS-B (EGLF / FAB)
Thu 12:24:02 AM 32.9281 -95.0542 79° East 511 588 35,000  Level FlightAware ADS-B
Thu 12:24:23 AM 32.9370 -94.9959 80° East 513 590 35,000  Level FlightAware ADS-B (EGLF / FAB)
Thu 12:24:32 AM 32.9409 -94.9709 79° East 513 590 35,000  Level FlightAware ADS-B
Thu 12:24:59 AM 32.9521 -94.8960 80° East 512 589 35,000  Level FlightAware ADS-B (EGLF / FAB)
Thu 12:25:02 AM 32.9523 -94.8959 79° East 511 588 35,000  Level FlightAware ADS-B
Thu 12:25:32 AM 32.9614 -94.8351 79° East 512 589 35,000  Level FlightAware ADS-B
Thu 12:25:49 AM 32.9734 -94.7572 80° East 513 590 35,000  Level FlightAware ADS-B (EGLF / FAB)
Thu 12:26:00 AM 32.9756 -94.7405 80° East 512 589 35,000  Level FlightAware ADS-B
Thu 12:26:22 AM 32.9866 -94.6656 80° East 512 589 35,000  Level FlightAware ADS-B (EGLF / FAB)
Thu 12:26:32 AM 32.9896 -94.6461 79° East 511 588 35,000  Level FlightAware ADS-B
Thu 12:26:52 AM 32.9989 -94.5823 80° East 512 589 35,000  Level FlightAware ADS-B (EGLF / FAB)
Thu 12:27:02 AM 33.0030 -94.5547 79° East 510 587 35,000  Level FlightAware ADS-B
Thu 12:27:27 AM 33.0135 -94.4855 80° East 510 587 35,000  Level FlightAware ADS-B
Thu 12:27:32 AM 33.0155 -94.4716 80° East 509 586 35,000  Level FlightAware ADS-B
Thu 12:27:57 AM 33.0255 -94.4027 80° East 509 586 35,000  Level FlightAware ADS-B
Thu 12:28:02 AM 33.0272 -94.3917 80° East 509 586 35,000  Level FlightAware ADS-B
Thu 12:28:32 AM 33.0395 -94.3059 80° East 509 586 35,000  Level FlightAware ADS-B
Thu 12:29:02 AM 33.0511 -94.2261 80° East 509 586 35,000  Level FlightAware ADS-B
Thu 12:29:07 AM 33.0533 -94.2094 80° East 509 586 35,000  Level FlightAware ADS-B
Thu 12:29:32 AM 33.0634 -94.1403 80° East 509 586 35,000  Level FlightAware ADS-B
Thu 12:29:37 AM 33.0648 -94.1293 80° East 509 586 35,000  Level FlightAware ADS-B
Thu 12:30:01 AM 33.0742 -94.0656 80° East 509 586 35,000  Level FlightAware ADS-B
Thu 12:30:07 AM 33.0775 -94.0435 80° East 510 587 35,000  Level FlightAware ADS-B
Thu 12:30:32 AM 33.0873 -93.9745 80° East 509 586 35,000  Level FlightAware ADS-B
Thu 12:30:37 AM 33.0877 -93.9717 81° East 510 587 35,000  Level FlightAware ADS-B
Thu 12:31:02 AM 33.0988 -93.8914 80° East 509 586 35,000  Level FlightAware ADS-B
Thu 12:31:07 AM 33.1004 -93.8774 81° East 510 587 35,000 207 Level FlightAware ADS-B
Thu 12:31:31 AM 33.1094 -93.8139 80° East 509 586 35,100 200 Climbing FlightAware ADS-B
Thu 12:31:37 AM 33.1124 -93.7945 81° East 509 586 35,100  Level FlightAware ADS-B
Thu 12:32:02 AM 33.1224 -93.7253 80° East 509 586 35,100  Level FlightAware ADS-B
Thu 12:32:13 AM 33.1264 -93.6949 81° East 509 586 35,100  Level FlightAware ADS-B (EGLF / FAB)
Thu 12:32:18 AM 33.1280 -93.6838 80° East 508 585 35,100  Level FlightAware ADS-B
Thu 12:32:52 AM 33.1418 -93.5871 81° East 509 586 35,100  Level FlightAware ADS-B (EGLF / FAB)
Thu 12:33:02 AM 33.1457 -93.5595 80° East 508 585 35,100 -171 Level FlightAware ADS-B
Thu 12:33:27 AM 33.1552 -93.4903 81° East 509 586 35,000 -200 Descending FlightAware ADS-B
Thu 12:33:32 AM 33.1567 -93.4791 80° East 508 585 35,000  Level FlightAware ADS-B
Thu 12:33:57 AM 33.1667 -93.4073 81° East 508 585 35,000  Level FlightAware ADS-B
Thu 12:34:02 AM 33.1686 -93.3935 80° East 507 583 35,000  Level FlightAware ADS-B
Thu 12:34:18 AM 33.1739 -93.3547 80° East 507 583 35,000  Level FlightAware ADS-B
Thu 12:34:37 AM 33.1819 -93.2970 81° East 508 585 35,000  Level FlightAware ADS-B
Thu 12:35:07 AM 33.1922 -93.2196 81° East 508 585 35,000  Level FlightAware ADS-B
Thu 12:36:36 AM 33.2264 -92.9682 81° East 507 583 35,000  Level FlightAware ADS-B
Thu 12:37:27 AM 33.2452 -92.8275 80° East 506 582 35,000  Level FlightAware ADS-B
Thu 12:38:27 AM 33.2972 -92.6742 57° Northeast 499 574 35,000  Level FlightAware ADS-B
Thu 12:38:57 AM 33.3368 -92.6065 56° Northeast 497 572 35,000  Level FlightAware ADS-B
Thu 12:39:37 AM 33.3896 -92.5158 56° Northeast 498 573 35,000  Level FlightAware ADS-B
Thu 12:40:07 AM 33.4277 -92.4476 56° Northeast 498 573 35,000  Level FlightAware ADS-B
Thu 12:40:37 AM 33.4677 -92.3795 55° Northeast 498 573 35,000  Level FlightAware ADS-B
Thu 12:41:07 AM 33.5072 -92.3117 55° Northeast 498 573 35,000  Level FlightAware ADS-B
Thu 12:41:37 AM 33.5463 -92.2435 55° Northeast 497 572 35,000  Level FlightAware ADS-B
Thu 12:42:07 AM 33.5855 -92.1755 56° Northeast 498 573 35,000  Level FlightAware ADS-B
Thu 12:42:37 AM 33.6251 -92.1074 55° Northeast 499 574 35,000 -429 Level FlightAware ADS-B
Thu 12:43:17 AM 33.6771 -92.0158 56° Northeast 501 577 34,500 -1,200 Descending FlightAware ADS-B
Thu 12:43:47 AM 33.7177 -91.9468 56° Northeast 505 581 33,600 -2,000 Descending FlightAware ADS-B
Thu 12:44:17 AM 33.7567 -91.8772 56° Northeast 506 582 32,500 -2,200 Descending FlightAware ADS-B
Thu 12:44:47 AM 33.7953 -91.8080 56° Northeast 498 573 31,400 -2,286 Descending FlightAware ADS-B
Thu 12:45:20 AM 33.8374 -91.7331 56° Northeast 488 562 30,100 -2,270 Descending FlightAware ADS-B
Thu 12:46:01 AM 33.8890 -91.6422 56° Northeast 477 549 28,600 -2,148 Descending FlightAware ADS-B
Thu 12:46:41 AM 33.9338 -91.5644 50° Northeast 464 534 27,200 -2,154 Descending FlightAware ADS-B
Thu 12:47:19 AM 33.9821 -91.4992 49° Northeast 453 521 25,800 -2,080 Descending FlightAware ADS-B
Thu 12:47:56 AM 34.0430 -91.4139 49° Northeast 445 512 24,600 -2,034 Descending FlightAware ADS-B
Thu 12:49:17 AM 34.1467 -91.2697 49° Northeast 444 511 21,800 -2,070 Descending Memphis Center
Thu 12:50:18 AM 34.2256 -91.1628 48° Northeast 430 495 19,700 -2,033 Descending Memphis Center
Thu 12:51:18 AM 34.3000 -91.0578 49° Northeast 417 480 17,700 -1,983 Descending Memphis Center
Thu 12:52:19 AM 34.3714 -90.9567 49° Northeast 404 465 15,700 -1,983 Descending Memphis Center
Thu 12:53:19 AM 34.4414 -90.8614 48° Northeast 386 444 13,700 -1,736 Descending Memphis Center
Thu 12:54:20 AM 34.5075 -90.7697 49° Northeast 370 426 12,200 -1,339 Descending Memphis Center
Thu 12:55:20 AM 34.5631 -90.6769 54° Northeast 348 400 11,000 -1,041 Descending Memphis Center
Thu 12:56:21 AM 34.6156 -90.5922 53° Northeast 324 373 10,100 -496 Descending Memphis Center
Thu 12:57:21 AM 34.6622 -90.5167 53° Northeast 291 335 10,000 -595 Descending Memphis Center
Thu 12:58:22 AM 34.6814 -90.4289 75° East 283 326 8,900 -1,041 Descending Memphis Center
Thu 12:59:22 AM 34.7003 -90.3450 75° East 264 304 7,900 -1,091 Descending Memphis Center
Thu 01:00:23 AM 34.7158 -90.2636 77° East 254 292 6,700 -984 Descending Memphis Center
Thu 01:01:24 AM 34.7336 -90.1836 75° East 250 288 5,900 -843 Descending Memphis Center
Thu 01:02:24 AM 34.7539 -90.1061 72° East 249 287 5,000 -744 Descending Memphis Center
Thu 01:03:25 AM 34.7722 -90.0358 72° East 234 269 4,400 -496 Descending Memphis Center
Thu 01:04:25 AM 34.8219 -89.9975 32° Northeast 226 260 4,000 -694 Descending Memphis Center
Thu 01:05:26 AM 34.8831 -89.9833 11° North 235 270 3,000 -1,085 Descending Memphis Center
Thu 01:05:59 AM 34.9333 -89.9833 360° North 220 253 2,300 -1,097 Descending KMEM
Thu 01:06:59 AM 34.9833 -89.9833 360° North 187 215 1,300 -1,000 Descending KMEM
Thu 01:10:00 AM 35.0333 -89.9667 26° Northeast  Level FlightAware Approximate

Login

Don't have an account? Register now (free) for customized features, flight alerts, and more!